sensor_id;sensor_type;location;lat;lon;timestamp;temperature;humidity
12470;DHT22;36499;46.484;13.832;2023-04-02T00:00:13;7.50;99.90
12470;DHT22;36499;46.484;13.832;2023-04-02T00:02:46;7.50;99.90
12470;DHT22;36499;46.484;13.832;2023-04-02T00:05:41;7.50;99.90
12470;DHT22;36499;46.484;13.832;2023-04-02T00:08:28;7.60;99.90
12470;DHT22;36499;46.484;13.832;2023-04-02T00:11:06;7.50;99.90
12470;DHT22;36499;46.484;13.832;2023-04-02T00:13:38;7.50;99.90
12470;DHT22;36499;46.484;13.832;2023-04-02T00:16:11;7.50;99.90
12470;DHT22;36499;46.484;13.832;2023-04-02T00:18:44;7.50;99.90
12470;DHT22;36499;46.484;13.832;2023-04-02T00:21:20;7.50;99.90
12470;DHT22;36499;46.484;13.832;2023-04-02T00:23:52;7.50;99.90
12470;DHT22;36499;46.484;13.832;2023-04-02T00:26:29;7.50;99.90
12470;DHT22;36499;46.484;13.832;2023-04-02T00:28:59;7.50;99.90
12470;DHT22;36499;46.484;13.832;2023-04-02T00:31:27;7.60;99.90
12470;DHT22;36499;46.484;13.832;2023-04-02T00:33:56;7.50;99.90
12470;DHT22;36499;46.484;13.832;2023-04-02T00:36:29;7.60;99.90
12470;DHT22;36499;46.484;13.832;2023-04-02T00:39:02;7.60;99.90
12470;DHT22;36499;46.484;13.832;2023-04-02T00:41:36;7.50;99.90
12470;DHT22;36499;46.484;13.832;2023-04-02T00:44:04;7.60;99.90
12470;DHT22;36499;46.484;13.832;2023-04-02T00:46:39;7.60;99.90
12470;DHT22;36499;46.484;13.832;2023-04-02T00:49:21;7.60;99.90
12470;DHT22;36499;46.484;13.832;2023-04-02T00:51:57;7.60;99.90
12470;DHT22;36499;46.484;13.832;2023-04-02T00:54:31;7.60;99.90
12470;DHT22;36499;46.484;13.832;2023-04-02T00:57:12;7.60;99.90
12470;DHT22;36499;46.484;13.832;2023-04-02T00:59:52;7.60;99.90
12470;DHT22;36499;46.484;13.832;2023-04-02T01:02:25;7.70;99.90
12470;DHT22;36499;46.484;13.832;2023-04-02T01:04:56;7.70;99.90
12470;DHT22;36499;46.484;13.832;2023-04-02T01:07:45;7.60;99.90
12470;DHT22;36499;46.484;13.832;2023-04-02T01:10:43;7.60;99.90
12470;DHT22;36499;46.484;13.832;2023-04-02T01:13:23;7.60;99.90
12470;DHT22;36499;46.484;13.832;2023-04-02T01:16:03;7.70;99.90
12470;DHT22;36499;46.484;13.832;2023-04-02T01:18:50;7.70;99.90
12470;DHT22;36499;46.484;13.832;2023-04-02T01:21:40;7.70;99.90
12470;DHT22;36499;46.484;13.832;2023-04-02T01:24:18;7.70;99.90
12470;DHT22;36499;46.484;13.832;2023-04-02T01:26:52;7.70;99.90
12470;DHT22;36499;46.484;13.832;2023-04-02T01:29:26;7.70;99.90
12470;DHT22;36499;46.484;13.832;2023-04-02T01:31:59;7.70;99.90
12470;DHT22;36499;46.484;13.832;2023-04-02T01:34:28;7.70;99.90
12470;DHT22;36499;46.484;13.832;2023-04-02T01:37:16;7.70;99.90
12470;DHT22;36499;46.484;13.832;2023-04-02T01:40:05;7.70;99.90
12470;DHT22;36499;46.484;13.832;2023-04-02T01:42:48;7.80;99.90
12470;DHT22;36499;46.484;13.832;2023-04-02T01:45:24;7.80;99.90
12470;DHT22;36499;46.484;13.832;2023-04-02T01:47:51;7.80;99.90
12470;DHT22;36499;46.484;13.832;2023-04-02T01:50:26;7.80;99.90
12470;DHT22;36499;46.484;13.832;2023-04-02T01:52:59;7.80;99.90
12470;DHT22;36499;46.484;13.832;2023-04-02T01:55:33;7.80;99.90
12470;DHT22;36499;46.484;13.832;2023-04-02T01:58:05;7.80;99.90
12470;DHT22;36499;46.484;13.832;2023-04-02T02:00:36;7.80;99.90
12470;DHT22;36499;46.484;13.832;2023-04-02T02:03:11;7.80;99.90
12470;DHT22;36499;46.484;13.832;2023-04-02T02:05:39;7.80;99.90
12470;DHT22;36499;46.484;13.832;2023-04-02T02:08:20;7.80;99.90
12470;DHT22;36499;46.484;13.832;2023-04-02T02:10:54;7.80;99.90
12470;DHT22;36499;46.484;13.832;2023-04-02T02:13:23;7.70;99.90
12470;DHT22;36499;46.484;13.832;2023-04-02T02:15:51;7.70;99.90
12470;DHT22;36499;46.484;13.832;2023-04-02T02:18:24;7.70;99.90
12470;DHT22;36499;46.484;13.832;2023-04-02T02:20:52;7.70;99.90
12470;DHT22;36499;46.484;13.832;2023-04-02T02:23:22;7.70;99.90
12470;DHT22;36499;46.484;13.832;2023-04-02T02:25:50;7.70;99.90
12470;DHT22;36499;46.484;13.832;2023-04-02T02:28:22;7.60;99.90
12470;DHT22;36499;46.484;13.832;2023-04-02T02:30:58;7.60;99.90
12470;DHT22;36499;46.484;13.832;2023-04-02T02:33:31;7.60;99.90
12470;DHT22;36499;46.484;13.832;2023-04-02T02:36:06;7.50;99.90
12470;DHT22;36499;46.484;13.832;2023-04-02T02:38:47;7.50;99.90
12470;DHT22;36499;46.484;13.832;2023-04-02T02:41:24;7.50;99.90
12470;DHT22;36499;46.484;13.832;2023-04-02T02:44:00;7.50;99.90
12470;DHT22;36499;46.484;13.832;2023-04-02T02:46:35;7.40;99.90
12470;DHT22;36499;46.484;13.832;2023-04-02T02:49:05;7.30;99.90
12470;DHT22;36499;46.484;13.832;2023-04-02T02:51:42;7.30;99.90
12470;DHT22;36499;46.484;13.832;2023-04-02T02:54:14;7.20;99.90
12470;DHT22;36499;46.484;13.832;2023-04-02T02:56:47;7.20;99.90
12470;DHT22;36499;46.484;13.832;2023-04-02T02:59:20;7.20;99.90
12470;DHT22;36499;46.484;13.832;2023-04-02T03:01:51;7.10;99.90
12470;DHT22;36499;46.484;13.832;2023-04-02T03:04:20;7.10;99.90
12470;DHT22;36499;46.484;13.832;2023-04-02T03:06:49;7.10;99.90
12470;DHT22;36499;46.484;13.832;2023-04-02T03:09:26;7.10;99.90
12470;DHT22;36499;46.484;13.832;2023-04-02T03:12:05;7.10;99.90
12470;DHT22;36499;46.484;13.832;2023-04-02T03:14:51;7.10;99.90
12470;DHT22;36499;46.484;13.832;2023-04-02T03:17:28;6.90;99.90
12470;DHT22;36499;46.484;13.832;2023-04-02T03:20:03;6.90;99.90
12470;DHT22;36499;46.484;13.832;2023-04-02T03:22:43;6.80;99.90
12470;DHT22;36499;46.484;13.832;2023-04-02T03:25:23;6.80;99.90
12470;DHT22;36499;46.484;13.832;2023-04-02T03:28:00;6.80;99.90
12470;DHT22;36499;46.484;13.832;2023-04-02T03:30:37;6.80;99.90
12470;DHT22;36499;46.484;13.832;2023-04-02T03:33:13;6.80;99.90
12470;DHT22;36499;46.484;13.832;2023-04-02T03:35:51;6.80;99.90
12470;DHT22;36499;46.484;13.832;2023-04-02T03:38:26;6.80;99.90
12470;DHT22;36499;46.484;13.832;2023-04-02T03:41:02;6.70;99.90
12470;DHT22;36499;46.484;13.832;2023-04-02T03:43:39;6.70;99.90
12470;DHT22;36499;46.484;13.832;2023-04-02T03:46:21;6.70;99.90
12470;DHT22;36499;46.484;13.832;2023-04-02T03:48:54;6.70;99.90
12470;DHT22;36499;46.484;13.832;2023-04-02T03:51:29;6.70;99.90
12470;DHT22;36499;46.484;13.832;2023-04-02T03:54:00;6.70;99.90
12470;DHT22;36499;46.484;13.832;2023-04-02T03:56:31;6.70;99.90
12470;DHT22;36499;46.484;13.832;2023-04-02T03:59:10;6.80;99.90
12470;DHT22;36499;46.484;13.832;2023-04-02T04:01:48;6.80;99.90
12470;DHT22;36499;46.484;13.832;2023-04-02T04:04:25;6.80;99.90
12470;DHT22;36499;46.484;13.832;2023-04-02T04:06:55;6.80;99.90
12470;DHT22;36499;46.484;13.832;2023-04-02T04:09:28;6.80;99.90
12470;DHT22;36499;46.484;13.832;2023-04-02T04:12:08;6.80;99.90
12470;DHT22;36499;46.484;13.832;2023-04-02T04:14:42;6.80;99.90
12470;DHT22;36499;46.484;13.832;2023-04-02T04:17:18;6.80;99.90
12470;DHT22;36499;46.484;13.832;2023-04-02T04:19:59;6.80;99.90
12470;DHT22;36499;46.484;13.832;2023-04-02T04:22:36;6.80;99.90
12470;DHT22;36499;46.484;13.832;2023-04-02T04:25:17;6.80;99.90
12470;DHT22;36499;46.484;13.832;2023-04-02T04:27:57;6.80;99.90
12470;DHT22;36499;46.484;13.832;2023-04-02T04:30:38;6.80;99.90
12470;DHT22;36499;46.484;13.832;2023-04-02T04:33:18;6.80;99.90
12470;DHT22;36499;46.484;13.832;2023-04-02T04:35:52;6.80;99.90
12470;DHT22;36499;46.484;13.832;2023-04-02T04:38:29;6.80;99.90
12470;DHT22;36499;46.484;13.832;2023-04-02T04:41:03;6.80;99.90
12470;DHT22;36499;46.484;13.832;2023-04-02T04:43:44;6.80;99.90
12470;DHT22;36499;46.484;13.832;2023-04-02T04:46:18;6.80;99.90
12470;DHT22;36499;46.484;13.832;2023-04-02T04:48:53;6.70;99.90
12470;DHT22;36499;46.484;13.832;2023-04-02T04:51:32;6.70;99.90
12470;DHT22;36499;46.484;13.832;2023-04-02T04:54:02;6.70;99.90
12470;DHT22;36499;46.484;13.832;2023-04-02T04:56:31;6.80;99.90
12470;DHT22;36499;46.484;13.832;2023-04-02T04:59:02;6.80;99.90
12470;DHT22;36499;46.484;13.832;2023-04-02T05:01:41;6.80;99.90
12470;DHT22;36499;46.484;13.832;2023-04-02T05:04:16;6.80;99.90
12470;DHT22;36499;46.484;13.832;2023-04-02T05:06:55;6.80;99.90
12470;DHT22;36499;46.484;13.832;2023-04-02T05:09:30;6.80;99.90
12470;DHT22;36499;46.484;13.832;2023-04-02T05:12:06;6.90;99.90
12470;DHT22;36499;46.484;13.832;2023-04-02T05:14:47;6.90;99.90
12470;DHT22;36499;46.484;13.832;2023-04-02T05:17:22;6.90;99.90
12470;DHT22;36499;46.484;13.832;2023-04-02T05:19:59;6.80;99.90
12470;DHT22;36499;46.484;13.832;2023-04-02T05:22:37;6.80;99.90
12470;DHT22;36499;46.484;13.832;2023-04-02T05:25:19;6.70;99.90
12470;DHT22;36499;46.484;13.832;2023-04-02T05:27:53;6.60;99.90
12470;DHT22;36499;46.484;13.832;2023-04-02T05:30:45;6.60;99.90
12470;DHT22;36499;46.484;13.832;2023-04-02T05:33:23;6.60;99.90
12470;DHT22;36499;46.484;13.832;2023-04-02T05:35:56;6.60;99.90
12470;DHT22;36499;46.484;13.832;2023-04-02T05:38:31;6.60;99.90
12470;DHT22;36499;46.484;13.832;2023-04-02T05:41:02;6.70;99.90
12470;DHT22;36499;46.484;13.832;2023-04-02T05:43:36;6.80;99.90
12470;DHT22;36499;46.484;13.832;2023-04-02T05:46:15;6.90;99.90
12470;DHT22;36499;46.484;13.832;2023-04-02T05:48:47;7.00;99.90
12470;DHT22;36499;46.484;13.832;2023-04-02T05:51:25;7.00;99.90
12470;DHT22;36499;46.484;13.832;2023-04-02T05:54:00;7.20;99.90
12470;DHT22;36499;46.484;13.832;2023-04-02T05:56:35;7.30;99.90
12470;DHT22;36499;46.484;13.832;2023-04-02T05:59:11;7.50;99.90
12470;DHT22;36499;46.484;13.832;2023-04-02T06:01:44;7.60;99.90
12470;DHT22;36499;46.484;13.832;2023-04-02T06:04:20;7.60;99.90
12470;DHT22;36499;46.484;13.832;2023-04-02T06:06:58;7.70;99.90
12470;DHT22;36499;46.484;13.832;2023-04-02T06:09:37;7.80;99.90
12470;DHT22;36499;46.484;13.832;2023-04-02T06:12:18;8.00;99.90
12470;DHT22;36499;46.484;13.832;2023-04-02T06:14:53;8.10;99.90
12470;DHT22;36499;46.484;13.832;2023-04-02T06:17:21;8.20;99.90
12470;DHT22;36499;46.484;13.832;2023-04-02T06:19:49;8.30;99.90
12470;DHT22;36499;46.484;13.832;2023-04-02T06:22:22;8.40;99.90
12470;DHT22;36499;46.484;13.832;2023-04-02T06:24:58;8.20;99.90
12470;DHT22;36499;46.484;13.832;2023-04-02T06:27:29;8.30;99.90
12470;DHT22;36499;46.484;13.832;2023-04-02T06:29:59;8.40;99.90
12470;DHT22;36499;46.484;13.832;2023-04-02T06:32:31;8.50;99.90
12470;DHT22;36499;46.484;13.832;2023-04-02T06:34:59;8.60;99.90
12470;DHT22;36499;46.484;13.832;2023-04-02T06:37:31;8.70;99.90
12470;DHT22;36499;46.484;13.832;2023-04-02T06:40:05;8.90;99.90
12470;DHT22;36499;46.484;13.832;2023-04-02T06:42:52;9.00;99.90
12470;DHT22;36499;46.484;13.832;2023-04-02T06:45:28;9.10;99.90
12470;DHT22;36499;46.484;13.832;2023-04-02T06:48:01;9.20;99.90
12470;DHT22;36499;46.484;13.832;2023-04-02T06:50:33;9.30;99.90
12470;DHT22;36499;46.484;13.832;2023-04-02T06:53:06;9.40;99.90
12470;DHT22;36499;46.484;13.832;2023-04-02T06:55:46;9.50;99.90
12470;DHT22;36499;46.484;13.832;2023-04-02T06:58:16;9.70;99.90
12470;DHT22;36499;46.484;13.832;2023-04-02T07:00:45;9.80;99.90
12470;DHT22;36499;46.484;13.832;2023-04-02T07:03:15;9.90;99.90
12470;DHT22;36499;46.484;13.832;2023-04-02T07:05:48;10.00;99.90
12470;DHT22;36499;46.484;13.832;2023-04-02T07:08:15;10.20;99.90
12470;DHT22;36499;46.484;13.832;2023-04-02T07:10:44;10.30;99.90
12470;DHT22;36499;46.484;13.832;2023-04-02T07:13:13;10.20;99.90
12470;DHT22;36499;46.484;13.832;2023-04-02T07:15:42;10.30;99.90
12470;DHT22;36499;46.484;13.832;2023-04-02T07:18:20;10.30;99.90
12470;DHT22;36499;46.484;13.832;2023-04-02T07:20:50;10.40;99.90
12470;DHT22;36499;46.484;13.832;2023-04-02T07:23:17;10.50;99.90
12470;DHT22;36499;46.484;13.832;2023-04-02T07:25:47;10.60;99.90
12470;DHT22;36499;46.484;13.832;2023-04-02T07:28:14;10.60;99.90
12470;DHT22;36499;46.484;13.832;2023-04-02T07:30:42;10.70;99.90
12470;DHT22;36499;46.484;13.832;2023-04-02T07:33:12;10.70;99.90
12470;DHT22;36499;46.484;13.832;2023-04-02T07:35:41;10.80;99.90
12470;DHT22;36499;46.484;13.832;2023-04-02T07:38:09;10.90;99.90
12470;DHT22;36499;46.484;13.832;2023-04-02T07:40:36;10.90;99.90
12470;DHT22;36499;46.484;13.832;2023-04-02T07:43:05;11.00;99.90
12470;DHT22;36499;46.484;13.832;2023-04-02T07:45:33;11.00;99.90
12470;DHT22;36499;46.484;13.832;2023-04-02T07:48:04;11.00;99.90
12470;DHT22;36499;46.484;13.832;2023-04-02T07:50:32;11.00;99.90
12470;DHT22;36499;46.484;13.832;2023-04-02T07:53:00;11.00;99.90
12470;DHT22;36499;46.484;13.832;2023-04-02T07:55:27;11.00;99.90
12470;DHT22;36499;46.484;13.832;2023-04-02T07:57:56;11.00;99.90
12470;DHT22;36499;46.484;13.832;2023-04-02T08:00:26;11.10;99.90
12470;DHT22;36499;46.484;13.832;2023-04-02T08:02:54;11.20;99.90
12470;DHT22;36499;46.484;13.832;2023-04-02T08:05:21;11.20;99.90
12470;DHT22;36499;46.484;13.832;2023-04-02T08:07:51;11.40;99.90
12470;DHT22;36499;46.484;13.832;2023-04-02T08:10:20;11.70;99.90
12470;DHT22;36499;46.484;13.832;2023-04-02T08:12:48;11.90;99.90
12470;DHT22;36499;46.484;13.832;2023-04-02T08:15:16;12.20;99.90
12470;DHT22;36499;46.484;13.832;2023-04-02T08:17:45;12.60;99.90
12470;DHT22;36499;46.484;13.832;2023-04-02T08:20:15;12.90;99.90
12470;DHT22;36499;46.484;13.832;2023-04-02T08:22:44;13.20;99.90
12470;DHT22;36499;46.484;13.832;2023-04-02T08:25:11;13.60;99.90
12470;DHT22;36499;46.484;13.832;2023-04-02T08:27:39;14.00;99.90
12470;DHT22;36499;46.484;13.832;2023-04-02T08:30:08;14.40;99.90
12470;DHT22;36499;46.484;13.832;2023-04-02T08:32:38;14.60;99.90
12470;DHT22;36499;46.484;13.832;2023-04-02T08:35:08;14.90;99.90
12470;DHT22;36499;46.484;13.832;2023-04-02T08:37:37;15.00;99.90
12470;DHT22;36499;46.484;13.832;2023-04-02T08:40:06;15.10;99.90
12470;DHT22;36499;46.484;13.832;2023-04-02T08:42:47;15.30;99.90
12470;DHT22;36499;46.484;13.832;2023-04-02T08:45:31;15.50;99.90
12470;DHT22;36499;46.484;13.832;2023-04-02T08:48:09;15.70;99.90
12470;DHT22;36499;46.484;13.832;2023-04-02T08:50:41;16.00;99.90
12470;DHT22;36499;46.484;13.832;2023-04-02T08:53:14;16.20;99.90
12470;DHT22;36499;46.484;13.832;2023-04-02T08:55:49;16.40;99.90
12470;DHT22;36499;46.484;13.832;2023-04-02T08:58:36;16.50;99.90
12470;DHT22;36499;46.484;13.832;2023-04-02T09:01:18;16.60;99.90
12470;DHT22;36499;46.484;13.832;2023-04-02T09:03:55;16.90;99.10
12470;DHT22;36499;46.484;13.832;2023-04-02T09:06:26;17.00;98.90
12470;DHT22;36499;46.484;13.832;2023-04-02T09:08:54;17.30;97.50
12470;DHT22;36499;46.484;13.832;2023-04-02T09:11:23;17.40;97.30
12470;DHT22;36499;46.484;13.832;2023-04-02T09:14:02;17.50;96.60
12470;DHT22;36499;46.484;13.832;2023-04-02T09:16:42;17.60;96.00
12470;DHT22;36499;46.484;13.832;2023-04-02T09:19:15;17.80;95.60
12470;DHT22;36499;46.484;13.832;2023-04-02T09:21:54;17.90;95.50
12470;DHT22;36499;46.484;13.832;2023-04-02T09:24:28;18.10;94.90
12470;DHT22;36499;46.484;13.832;2023-04-02T09:26:56;18.20;94.50
12470;DHT22;36499;46.484;13.832;2023-04-02T09:29:39;18.40;94.90
12470;DHT22;36499;46.484;13.832;2023-04-02T09:32:37;18.60;93.60
12470;DHT22;36499;46.484;13.832;2023-04-02T09:35:14;18.70;93.30
12470;DHT22;36499;46.484;13.832;2023-04-02T09:37:44;19.00;92.60
12470;DHT22;36499;46.484;13.832;2023-04-02T09:40:23;19.30;92.00
12470;DHT22;36499;46.484;13.832;2023-04-02T09:43:02;19.30;90.70
12470;DHT22;36499;46.484;13.832;2023-04-02T09:45:36;19.30;89.60
12470;DHT22;36499;46.484;13.832;2023-04-02T09:48:16;19.40;88.00
12470;DHT22;36499;46.484;13.832;2023-04-02T09:51:06;19.40;86.00
12470;DHT22;36499;46.484;13.832;2023-04-02T09:53:40;19.30;81.70
12470;DHT22;36499;46.484;13.832;2023-04-02T09:56:12;19.00;82.50
12470;DHT22;36499;46.484;13.832;2023-04-02T09:58:42;18.80;86.20
12470;DHT22;36499;46.484;13.832;2023-04-02T10:01:33;18.70;86.20
12470;DHT22;36499;46.484;13.832;2023-04-02T10:04:04;18.80;86.80
12470;DHT22;36499;46.484;13.832;2023-04-02T10:06:52;19.00;85.20
12470;DHT22;36499;46.484;13.832;2023-04-02T10:09:27;19.30;84.80
12470;DHT22;36499;46.484;13.832;2023-04-02T10:11:58;19.60;83.70
12470;DHT22;36499;46.484;13.832;2023-04-02T10:14:31;19.70;80.10
12470;DHT22;36499;46.484;13.832;2023-04-02T10:17:09;19.70;79.80
12470;DHT22;36499;46.484;13.832;2023-04-02T10:19:44;19.70;76.40
12470;DHT22;36499;46.484;13.832;2023-04-02T10:22:16;19.80;76.20
12470;DHT22;36499;46.484;13.832;2023-04-02T10:24:46;19.70;75.30
12470;DHT22;36499;46.484;13.832;2023-04-02T10:27:23;20.00;75.00
12470;DHT22;36499;46.484;13.832;2023-04-02T10:30:13;20.20;74.40
12470;DHT22;36499;46.484;13.832;2023-04-02T10:32:47;19.90;68.20
12470;DHT22;36499;46.484;13.832;2023-04-02T10:35:32;19.90;72.90
12470;DHT22;36499;46.484;13.832;2023-04-02T10:38:18;19.90;69.60
12470;DHT22;36499;46.484;13.832;2023-04-02T10:40:58;19.90;67.70
12470;DHT22;36499;46.484;13.832;2023-04-02T10:43:45;19.70;67.70
12470;DHT22;36499;46.484;13.832;2023-04-02T10:46:31;19.80;69.30
12470;DHT22;36499;46.484;13.832;2023-04-02T10:49:09;20.10;70.50
12470;DHT22;36499;46.484;13.832;2023-04-02T10:51:44;20.60;69.10
12470;DHT22;36499;46.484;13.832;2023-04-02T10:54:31;21.10;68.80
12470;DHT22;36499;46.484;13.832;2023-04-02T10:57:09;21.50;67.00
12470;DHT22;36499;46.484;13.832;2023-04-02T10:59:47;21.90;67.70
12470;DHT22;36499;46.484;13.832;2023-04-02T11:02:31;21.90;62.30
12470;DHT22;36499;46.484;13.832;2023-04-02T11:05:13;21.90;61.80
12470;DHT22;36499;46.484;13.832;2023-04-02T11:07:50;21.90;59.30
12470;DHT22;36499;46.484;13.832;2023-04-02T11:10:25;21.90;59.00
12470;DHT22;36499;46.484;13.832;2023-04-02T11:13:02;21.40;57.10
12470;DHT22;36499;46.484;13.832;2023-04-02T11:15:35;21.20;60.90
12470;DHT22;36499;46.484;13.832;2023-04-02T11:18:03;20.90;61.30
12470;DHT22;36499;46.484;13.832;2023-04-02T11:20:47;21.00;62.00
12470;DHT22;36499;46.484;13.832;2023-04-02T11:23:26;21.20;63.70
12470;DHT22;36499;46.484;13.832;2023-04-02T11:29:22;22.00;63.00
12470;DHT22;36499;46.484;13.832;2023-04-02T11:44:28;24.20;52.20
12470;DHT22;36499;46.484;13.832;2023-04-02T11:47:14;24.10;53.00
12470;DHT22;36499;46.484;13.832;2023-04-02T11:49:58;24.10;52.60
12470;DHT22;36499;46.484;13.832;2023-04-02T11:52:35;24.20;53.80
12470;DHT22;36499;46.484;13.832;2023-04-02T11:55:23;24.20;54.70
12470;DHT22;36499;46.484;13.832;2023-04-02T12:01:32;24.70;51.30
12470;DHT22;36499;46.484;13.832;2023-04-02T12:07:46;24.50;48.60
12470;DHT22;36499;46.484;13.832;2023-04-02T12:10:31;24.30;49.20
12470;DHT22;36499;46.484;13.832;2023-04-02T12:13:17;23.80;48.70
12470;DHT22;36499;46.484;13.832;2023-04-02T12:15:46;23.90;49.70
12470;DHT22;36499;46.484;13.832;2023-04-02T12:18:18;23.70;49.50
12470;DHT22;36499;46.484;13.832;2023-04-02T12:20:49;23.70;49.60
12470;DHT22;36499;46.484;13.832;2023-04-02T12:23:21;23.80;52.10
12470;DHT22;36499;46.484;13.832;2023-04-02T12:25:56;23.90;49.80
12470;DHT22;36499;46.484;13.832;2023-04-02T12:28:27;23.90;51.10
12470;DHT22;36499;46.484;13.832;2023-04-02T12:31:03;24.00;48.00
12470;DHT22;36499;46.484;13.832;2023-04-02T12:33:39;24.10;45.80
12470;DHT22;36499;46.484;13.832;2023-04-02T12:36:21;23.90;50.60
12470;DHT22;36499;46.484;13.832;2023-04-02T12:38:50;23.70;49.60
12470;DHT22;36499;46.484;13.832;2023-04-02T12:41:22;23.70;49.00
12470;DHT22;36499;46.484;13.832;2023-04-02T12:43:57;23.70;53.00
12470;DHT22;36499;46.484;13.832;2023-04-02T12:46:26;23.80;49.40
12470;DHT22;36499;46.484;13.832;2023-04-02T12:49:02;23.90;49.20
12470;DHT22;36499;46.484;13.832;2023-04-02T12:51:31;24.10;51.10
12470;DHT22;36499;46.484;13.832;2023-04-02T12:53:59;24.20;54.70
12470;DHT22;36499;46.484;13.832;2023-04-02T12:56:26;24.50;53.10
12470;DHT22;36499;46.484;13.832;2023-04-02T12:58:54;24.70;48.90
12470;DHT22;36499;46.484;13.832;2023-04-02T13:01:24;24.80;48.30
12470;DHT22;36499;46.484;13.832;2023-04-02T13:04:02;24.70;47.60
12470;DHT22;36499;46.484;13.832;2023-04-02T13:06:31;24.70;48.20
12470;DHT22;36499;46.484;13.832;2023-04-02T13:09:00;24.80;46.40
12470;DHT22;36499;46.484;13.832;2023-04-02T13:11:34;24.60;49.40
12470;DHT22;36499;46.484;13.832;2023-04-02T13:14:05;24.60;46.60
12470;DHT22;36499;46.484;13.832;2023-04-02T13:16:35;24.70;44.70
12470;DHT22;36499;46.484;13.832;2023-04-02T13:19:19;24.50;43.10
12470;DHT22;36499;46.484;13.832;2023-04-02T13:21:52;24.40;45.60
12470;DHT22;36499;46.484;13.832;2023-04-02T13:24:22;24.30;49.70
12470;DHT22;36499;46.484;13.832;2023-04-02T13:26:53;24.40;47.80
12470;DHT22;36499;46.484;13.832;2023-04-02T13:29:24;24.40;48.10
12470;DHT22;36499;46.484;13.832;2023-04-02T13:31:55;24.50;47.30
12470;DHT22;36499;46.484;13.832;2023-04-02T13:34:25;24.60;48.80
12470;DHT22;36499;46.484;13.832;2023-04-02T13:36:53;24.60;48.00
12470;DHT22;36499;46.484;13.832;2023-04-02T13:39:22;24.70;46.50
12470;DHT22;36499;46.484;13.832;2023-04-02T13:41:51;24.80;47.70
12470;DHT22;36499;46.484;13.832;2023-04-02T13:44:23;24.70;46.00
12470;DHT22;36499;46.484;13.832;2023-04-02T13:46:53;24.90;46.00
12470;DHT22;36499;46.484;13.832;2023-04-02T13:49:21;25.00;46.20
12470;DHT22;36499;46.484;13.832;2023-04-02T13:51:52;25.10;44.40
12470;DHT22;36499;46.484;13.832;2023-04-02T13:54:24;25.20;46.90
12470;DHT22;36499;46.484;13.832;2023-04-02T13:56:56;25.20;46.30
12470;DHT22;36499;46.484;13.832;2023-04-02T13:59:23;25.30;46.90
12470;DHT22;36499;46.484;13.832;2023-04-02T14:01:54;25.30;46.10
12470;DHT22;36499;46.484;13.832;2023-04-02T14:04:29;25.30;46.70
12470;DHT22;36499;46.484;13.832;2023-04-02T14:10:14;25.30;50.10
12470;DHT22;36499;46.484;13.832;2023-04-02T14:13:02;25.30;48.10
12470;DHT22;36499;46.484;13.832;2023-04-02T14:15:56;25.30;47.90
12470;DHT22;36499;46.484;13.832;2023-04-02T14:18:51;25.50;45.80
12470;DHT22;36499;46.484;13.832;2023-04-02T14:21:42;25.60;44.40
12470;DHT22;36499;46.484;13.832;2023-04-02T14:24:30;25.60;46.00
12470;DHT22;36499;46.484;13.832;2023-04-02T14:27:17;25.60;45.40
12470;DHT22;36499;46.484;13.832;2023-04-02T14:29:55;25.70;45.20
12470;DHT22;36499;46.484;13.832;2023-04-02T14:32:34;25.60;45.60
12470;DHT22;36499;46.484;13.832;2023-04-02T14:35:14;25.60;44.20
12470;DHT22;36499;46.484;13.832;2023-04-02T14:37:51;25.60;46.50
12470;DHT22;36499;46.484;13.832;2023-04-02T14:40:33;25.60;46.50
12470;DHT22;36499;46.484;13.832;2023-04-02T14:43:10;25.40;44.50
12470;DHT22;36499;46.484;13.832;2023-04-02T14:45:56;25.50;44.60
12470;DHT22;36499;46.484;13.832;2023-04-02T14:48:41;25.00;44.30
12470;DHT22;36499;46.484;13.832;2023-04-02T14:51:16;24.40;43.70
12470;DHT22;36499;46.484;13.832;2023-04-02T14:53:56;23.90;46.00
12470;DHT22;36499;46.484;13.832;2023-04-02T14:56:31;23.40;49.90
12470;DHT22;36499;46.484;13.832;2023-04-02T14:59:19;22.80;44.80
12470;DHT22;36499;46.484;13.832;2023-04-02T15:01:54;22.60;49.70
12470;DHT22;36499;46.484;13.832;2023-04-02T15:04:29;22.40;48.90
12470;DHT22;36499;46.484;13.832;2023-04-02T15:07:04;22.10;47.70
12470;DHT22;36499;46.484;13.832;2023-04-02T15:09:43;21.50;48.40
12470;DHT22;36499;46.484;13.832;2023-04-02T15:12:20;21.20;50.40
12470;DHT22;36499;46.484;13.832;2023-04-02T15:14:54;20.70;50.80
12470;DHT22;36499;46.484;13.832;2023-04-02T15:17:28;20.30;50.60
12470;DHT22;36499;46.484;13.832;2023-04-02T15:20:01;20.00;52.40
12470;DHT22;36499;46.484;13.832;2023-04-02T15:22:42;19.90;54.30
12470;DHT22;36499;46.484;13.832;2023-04-02T15:25:26;20.00;54.80
12470;DHT22;36499;46.484;13.832;2023-04-02T15:28:08;20.20;54.60
12470;DHT22;36499;46.484;13.832;2023-04-02T15:30:47;20.40;52.40
12470;DHT22;36499;46.484;13.832;2023-04-02T15:33:43;20.50;51.10
12470;DHT22;36499;46.484;13.832;2023-04-02T15:36:27;20.60;51.10
12470;DHT22;36499;46.484;13.832;2023-04-02T15:39:28;20.20;50.80
12470;DHT22;36499;46.484;13.832;2023-04-02T15:42:14;20.10;51.30
12470;DHT22;36499;46.484;13.832;2023-04-02T15:44:59;19.70;52.40
12470;DHT22;36499;46.484;13.832;2023-04-02T15:47:49;18.70;54.70
12470;DHT22;36499;46.484;13.832;2023-04-02T15:50:48;18.20;55.20
12470;DHT22;36499;46.484;13.832;2023-04-02T15:53:32;18.10;55.50
12470;DHT22;36499;46.484;13.832;2023-04-02T15:56:12;17.70;56.50
12470;DHT22;36499;46.484;13.832;2023-04-02T15:59:06;17.70;57.10
12470;DHT22;36499;46.484;13.832;2023-04-02T16:01:58;17.90;60.30
12470;DHT22;36499;46.484;13.832;2023-04-02T16:04:44;18.00;56.70
12470;DHT22;36499;46.484;13.832;2023-04-02T16:07:28;17.80;56.50
12470;DHT22;36499;46.484;13.832;2023-04-02T16:10:16;17.80;55.30
12470;DHT22;36499;46.484;13.832;2023-04-02T16:12:50;17.90;54.30
12470;DHT22;36499;46.484;13.832;2023-04-02T16:15:22;17.90;55.30
12470;DHT22;36499;46.484;13.832;2023-04-02T16:17:59;17.90;56.10
12470;DHT22;36499;46.484;13.832;2023-04-02T16:20:31;17.90;56.80
12470;DHT22;36499;46.484;13.832;2023-04-02T16:23:04;17.80;56.50
12470;DHT22;36499;46.484;13.832;2023-04-02T16:25:43;17.70;57.30
12470;DHT22;36499;46.484;13.832;2023-04-02T16:28:24;17.40;59.00
12470;DHT22;36499;46.484;13.832;2023-04-02T16:30:57;16.90;62.20
12470;DHT22;36499;46.484;13.832;2023-04-02T16:33:47;16.50;64.30
12470;DHT22;36499;46.484;13.832;2023-04-02T16:36:30;16.30;65.40
12470;DHT22;36499;46.484;13.832;2023-04-02T16:39:13;16.20;66.70
12470;DHT22;36499;46.484;13.832;2023-04-02T16:41:58;16.00;68.50